Terminal Aerodrome Forecast
Issued by NWS

Home | Current Version | Previous Version | Text Only | Print | Product List | Glossary On
Versions: 1 2 3 4 5 6 7 8 9 10 11 12 13 14
000
FTUS44 KCRP 252327
TAFLRD
TAF
KLRD 252327Z 2600/2624 13015G20KT P6SM VCTS SCT060CB
     FM260100 14012KT P6SM BKN250
     FM261600 15015G20KT P6SM FEW050 SCT250
     FM262300 14016G23KT P6SM VCSH SCT050=

USA.gov is the U.S. government's official web portal to all federal, state and local government web resources and services.